Portada
METAR-TAF:

METAR-TAF

Aeropuertos :

Galesburg Municipal Airport

Galesburg, Illinois, Estados Unidos

latitud: 40-56-17N, longitud: 090-25-52W, altitud: 233 m

Observación

El informe se hizo hace 22 minutos, a las 17:55 UTC
Viento 6 kt del este
Temperatura 22°C
Humedad 100%
Presión 1014 hPa
Visibilidad: 16.1 km
Nubes dispersas a una altura de 3500 ft
Nubes dispersas a una altura de 4500 ft
Cielo nuboso a una altura de 11000 ft
lluvia ligera

METAR: KGBG 151755Z AUTO 09006KT 10SM -RA SCT035 SCT045 BKN110 22/22 A2993 RMK AO2 LTG DSNT SE THRU SW P0006 60015 T02220217 10235 20219

Hora: 13:17 (18:17 UTC)


TAF: falta

Observaciones y pronósticos meteorológicos de más de 4000 aeropuertos (mensajes METAR y TAF).

Los puntos amarillos y rojos representan las estaciones disponibles.

Ponga el ratón en el punto deseado para ver el nombre de la estación.

Haga clic para ver las observaciones y los pronósticos meteorológicos.

Para cambiar el mapa : haga clic en los botones verdes con una cruz de color negro para hacer un zoom, en el botón verde con un guión para alejar o en las flechas verdes para mapas adyacentes.


METAR-TAF: